Flight Number: EUR3070 Duration: 10:00
Departure: Lisboa / Portela (LPPT) at 07:30 Distance: 4163 Nm
Arrival: Rio de Janeiro (SBGL) at 17:30 Equipment: A340

Weather Information
Lisboa / Portela, Portugal (LPPT) 38-46N 009-08W 123M Aug 17, 2018 - 05:00 PM EDT / 2018.08.17 2100 UTC
Wind: from the NW (310 degrees) at 12 MPH (10 KT):0
Visibility: greater than 7 mile(s):0 Temperature: 69 F (21 C) Dew Point: 59 F (15 C) Relative Humidity: 68% Pressure (altimeter): 30.00 in. Hg (1016 hPa)
ob: LPPT 172100Z 31010KT CAVOK 21/15 Q1016 cycle: 21
Sunrise: 05:55 Sunset: 19:25 (UTC)

Galeao, Brazil (SBGL) 22-49S 043-15W 42M Aug 17, 2018 - 05:00 PM EDT / 2018.08.17 2100 UTC
Wind: from the SE (140 degrees) at 6 MPH (5 KT):0
Visibility: greater than 7 mile(s):0
Sky conditions: mostly cloudy Temperature: 69 F (21 C) Dew Point: 64 F (18 C) Relative Humidity: 82% Pressure (altimeter): 30.27 in. Hg (1025 hPa)
ob: SBGL 172100Z 14005KT 9999 FEW015 BKN025 BKN070 21/18 Q1025 cycle: 21
Sunrise: 09:18 Sunset: 20:35 (UTC)

TAF:2018/08/17 18:45 TAF SBGL 171500Z 1718/1824 19010KT 7000 SCT015 TN18/1809Z TX23/1817Z BECMG 1720/1722 11005KT 4000 RA BKN012 BECMG 1805/1807 06005KT PROB40 1808 /1810 18003KT 4000 BR BKN010 BECMG 1810/1812 11005KT 9999 NSW SCT017 BECMG 1813/1816 14010KT RMK PGZ

Previous Pireps for this route
Date Aircraft Flight time Fuel used Landing rate On time
2016-04-05A34008.45135994-163Yes
(pireps marked green are flown by you)

Route map